createdAt,value
2023-07-02T00:00:51.325Z,3.12
2023-07-02T00:01:51.383Z,2.85
2023-07-02T00:02:51.355Z,2.76
2023-07-02T00:03:51.367Z,2.87
2023-07-02T00:04:51.529Z,2.76
2023-07-02T00:05:51.337Z,3.28
2023-07-02T00:06:51.342Z,3.24
2023-07-02T00:07:51.441Z,3.36
2023-07-02T00:08:51.358Z,2.84
2023-07-02T00:09:51.351Z,2.55
2023-07-02T00:10:51.720Z,2.85
2023-07-02T00:11:51.370Z,2.90
2023-07-02T00:12:51.365Z,3.21
2023-07-02T00:13:51.389Z,2.69
2023-07-02T00:14:51.366Z,2.81
2023-07-02T00:15:51.367Z,2.77
2023-07-02T00:16:51.418Z,2.99
2023-07-02T00:17:51.448Z,2.59
2023-07-02T00:18:51.378Z,3.12
2023-07-02T00:19:51.395Z,2.35
2023-07-02T00:20:51.556Z,2.55
2023-07-02T00:21:51.487Z,3.34
2023-07-02T00:22:51.525Z,2.57
2023-07-02T00:23:51.558Z,2.45
2023-07-02T00:24:51.614Z,2.63
2023-07-02T00:25:51.639Z,2.98
2023-07-02T00:26:51.664Z,2.62
2023-07-02T00:27:51.707Z,2.85
2023-07-02T00:28:51.745Z,3.06
2023-07-02T00:29:51.812Z,2.56
2023-07-02T00:30:52.095Z,2.46
2023-07-02T00:31:51.869Z,2.42
2023-07-02T00:32:51.955Z,3.66
2023-07-02T00:33:51.949Z,2.83
2023-07-02T00:34:51.982Z,2.64
2023-07-02T00:35:52.016Z,2.76
2023-07-02T00:36:52.046Z,2.65
2023-07-02T00:37:52.085Z,3.08
2023-07-02T00:38:52.152Z,3.35
2023-07-02T00:39:52.172Z,2.72
2023-07-02T00:40:52.209Z,3.14
2023-07-02T00:41:52.238Z,3.28
2023-07-02T00:42:52.298Z,2.94
2023-07-02T00:43:52.319Z,2.50
2023-07-02T00:44:52.362Z,2.82
2023-07-02T00:45:52.434Z,2.97
2023-07-02T00:46:52.588Z,2.57
2023-07-02T00:47:52.525Z,3.21
2023-07-02T00:48:52.513Z,2.66
2023-07-02T00:49:52.552Z,3.12
2023-07-02T00:50:52.579Z,3.16
2023-07-02T00:51:52.622Z,2.37
2023-07-02T00:52:52.686Z,2.47
2023-07-02T00:53:52.689Z,3.00
2023-07-02T00:54:52.735Z,2.96
2023-07-02T00:55:52.756Z,2.75
2023-07-02T00:56:52.788Z,2.93
2023-07-02T00:57:52.833Z,2.75
2023-07-02T00:58:52.875Z,2.88
2023-07-02T00:59:52.927Z,2.58
2023-07-02T01:00:52.944Z,2.53
2023-07-02T01:01:53.026Z,2.76
2023-07-02T01:02:53.085Z,3.08
2023-07-02T01:03:53.068Z,2.89
2023-07-02T01:04:53.164Z,3.09
2023-07-02T01:05:53.197Z,2.83
2023-07-02T01:06:53.161Z,2.61
2023-07-02T01:07:53.233Z,2.78
2023-07-02T01:08:53.241Z,2.82
2023-07-02T01:09:53.285Z,2.88
2023-07-02T01:10:53.324Z,2.87
2023-07-02T01:11:53.366Z,2.91
2023-07-02T01:12:53.393Z,2.97
2023-07-02T01:13:53.434Z,2.78
2023-07-02T01:14:53.475Z,3.23
2023-07-02T01:15:53.529Z,2.77
2023-07-02T01:16:53.578Z,2.92
2023-07-02T01:17:53.639Z,2.95
2023-07-02T01:18:53.630Z,2.77
2023-07-02T01:19:53.786Z,2.97
2023-07-02T01:20:53.717Z,2.93
2023-07-02T01:21:53.752Z,2.81
2023-07-02T01:22:53.798Z,2.52
2023-07-02T01:23:53.828Z,2.76
2023-07-02T01:24:53.864Z,2.69
2023-07-02T01:25:53.910Z,2.87
2023-07-02T01:26:53.940Z,2.50
2023-07-02T01:27:53.980Z,2.67
2023-07-02T01:28:54.030Z,2.92
2023-07-02T01:29:54.104Z,3.04
2023-07-02T01:30:54.097Z,2.89
2023-07-02T01:31:54.185Z,2.79
2023-07-02T01:32:54.211Z,2.77
2023-07-02T01:33:54.262Z,2.97
2023-07-02T01:34:54.575Z,2.57
2023-07-02T01:35:54.325Z,2.69
2023-07-02T01:36:54.363Z,2.97
2023-07-02T01:37:54.408Z,2.54
2023-07-02T01:38:54.449Z,2.97
2023-07-02T01:39:54.501Z,2.69
2023-07-02T01:40:54.533Z,2.30
2023-07-02T01:41:54.593Z,2.95
2023-07-02T01:42:54.621Z,2.62
2023-07-02T01:43:54.652Z,2.97
2023-07-02T01:44:54.689Z,2.89
2023-07-02T01:45:54.754Z,3.29
2023-07-02T01:46:54.772Z,3.03
2023-07-02T01:47:54.886Z,3.07
2023-07-02T01:48:54.845Z,2.98
2023-07-02T01:49:54.936Z,3.51
2023-07-02T01:50:54.946Z,2.68
2023-07-02T01:51:54.946Z,2.80
2023-07-02T01:52:55.023Z,2.72
2023-07-02T01:53:55.046Z,2.85
2023-07-02T01:54:55.061Z,3.03
2023-07-02T01:55:55.104Z,2.86
2023-07-02T01:56:55.144Z,2.43
2023-07-02T01:57:55.179Z,3.28
2023-07-02T01:58:55.220Z,3.20
2023-07-02T01:59:55.267Z,2.98
2023-07-02T02:00:55.491Z,2.86
2023-07-02T02:01:55.331Z,2.83
2023-07-02T02:02:55.413Z,3.16
2023-07-02T02:03:55.419Z,2.91
2023-07-02T02:04:55.489Z,2.93
2023-07-02T02:05:55.567Z,3.01
2023-07-02T02:06:55.556Z,2.78
2023-07-02T02:07:55.595Z,3.06
2023-07-02T02:08:55.626Z,2.69
2023-07-02T02:09:55.709Z,2.82
2023-07-02T02:10:55.717Z,3.18
2023-07-02T02:11:55.769Z,2.90
2023-07-02T02:12:55.810Z,3.46
2023-07-02T02:13:55.834Z,3.12
2023-07-02T02:14:55.869Z,3.09
2023-07-02T02:15:55.988Z,3.02
2023-07-02T02:16:55.955Z,3.08
2023-07-02T02:17:56.032Z,2.75
2023-07-02T02:18:56.027Z,3.05
2023-07-02T02:19:56.074Z,3.20
2023-07-02T02:20:56.106Z,2.65
2023-07-02T02:21:56.202Z,2.98
2023-07-02T02:22:56.179Z,2.99
2023-07-02T02:23:56.227Z,3.69
2023-07-02T02:24:56.270Z,3.31
2023-07-02T02:25:56.308Z,2.94
2023-07-02T02:26:56.354Z,2.71
2023-07-02T02:27:56.386Z,2.53
2023-07-02T02:28:56.449Z,3.27
2023-07-02T02:29:56.460Z,2.93
2023-07-02T02:30:56.522Z,2.83
2023-07-02T02:31:56.552Z,2.83
2023-07-02T02:32:56.616Z,2.88
2023-07-02T02:33:56.626Z,3.09
2023-07-02T02:34:56.688Z,2.95
2023-07-02T02:35:56.711Z,2.66
2023-07-02T02:36:56.761Z,3.14
2023-07-02T02:37:56.826Z,3.06
2023-07-02T02:38:56.836Z,3.14
2023-07-02T02:39:56.886Z,2.94
2023-07-02T02:40:56.917Z,3.35
2023-07-02T02:41:56.970Z,3.11
2023-07-02T02:42:57.010Z,3.04
2023-07-02T02:43:57.050Z,2.83
2023-07-02T02:44:57.090Z,3.19
2023-07-02T02:45:57.129Z,2.99
2023-07-02T02:46:57.202Z,2.84
2023-07-02T02:47:57.276Z,3.45
2023-07-02T02:48:57.269Z,3.21
2023-07-02T02:49:57.303Z,3.26
2023-07-02T02:50:57.347Z,2.84
2023-07-02T02:51:57.394Z,3.09
2023-07-02T02:52:57.431Z,2.77
2023-07-02T02:53:57.494Z,3.17
2023-07-02T02:54:57.518Z,3.06
2023-07-02T02:55:57.556Z,2.93
2023-07-02T02:56:57.605Z,3.17
2023-07-02T02:57:57.660Z,3.30
2023-07-02T02:58:57.764Z,3.10
2023-07-02T02:59:57.736Z,2.39
2023-07-02T03:00:57.777Z,2.69
2023-07-02T03:01:57.898Z,2.59
2023-07-02T03:02:57.933Z,3.22
2023-07-02T03:03:58.042Z,3.50
2023-07-02T03:04:58.073Z,2.67
2023-07-02T03:05:57.999Z,2.78
2023-07-02T03:06:58.040Z,3.18
2023-07-02T03:07:58.091Z,3.57
2023-07-02T03:08:58.160Z,3.18
2023-07-02T03:09:58.204Z,3.21
2023-07-02T03:10:58.230Z,3.14
2023-07-02T03:11:58.384Z,3.46
2023-07-02T03:12:58.323Z,3.13
2023-07-02T03:13:58.372Z,3.77
2023-07-02T03:14:58.416Z,3.22
2023-07-02T03:15:58.455Z,3.18
2023-07-02T03:16:58.673Z,2.85
2023-07-02T03:17:58.643Z,3.35
2023-07-02T03:18:58.586Z,2.87
2023-07-02T03:19:58.655Z,3.24
2023-07-02T03:20:58.681Z,3.17
2023-07-02T03:21:58.725Z,2.84
2023-07-02T03:22:58.772Z,3.52
2023-07-02T03:23:58.813Z,3.20
2023-07-02T03:24:58.872Z,3.03
2023-07-02T03:25:58.925Z,3.26
2023-07-02T03:26:58.949Z,3.59
2023-07-02T03:27:58.990Z,3.25
2023-07-02T03:28:59.027Z,3.62
2023-07-02T03:29:59.081Z,3.20
2023-07-02T03:30:59.132Z,2.83
2023-07-02T03:31:59.175Z,3.23
2023-07-02T03:32:59.269Z,3.51
2023-07-02T03:33:59.264Z,3.26
2023-07-02T03:34:59.303Z,3.25
2023-07-02T03:35:59.356Z,2.98
2023-07-02T03:36:59.418Z,3.43
2023-07-02T03:37:59.453Z,3.17
2023-07-02T03:38:59.501Z,3.13
2023-07-02T03:39:59.554Z,3.10
2023-07-02T03:40:59.597Z,3.65
2023-07-02T03:41:59.671Z,3.19
2023-07-02T03:42:59.694Z,3.42
2023-07-02T03:43:59.749Z,3.13
2023-07-02T03:44:59.784Z,3.62
2023-07-02T03:45:59.867Z,2.90
2023-07-02T03:46:59.882Z,3.08
2023-07-02T03:47:59.946Z,2.85
2023-07-02T03:48:59.968Z,3.45
2023-07-02T03:50:00.021Z,2.81
2023-07-02T03:51:00.071Z,3.21
2023-07-02T03:52:00.114Z,3.64
2023-07-02T03:53:00.163Z,3.19
2023-07-02T03:54:00.205Z,3.44
2023-07-02T03:55:00.250Z,3.07
2023-07-02T03:56:00.304Z,2.98
2023-07-02T03:57:00.334Z,3.10
2023-07-02T03:58:00.405Z,3.01
2023-07-02T03:59:00.455Z,2.90
2023-07-02T04:00:00.483Z,2.73
2023-07-02T04:01:00.511Z,3.34
2023-07-02T04:02:00.611Z,3.16
2023-07-02T04:03:00.667Z,3.04
2023-07-02T04:04:00.712Z,3.24
2023-07-02T04:05:00.815Z,3.17
2023-07-02T04:06:00.781Z,3.31
2023-07-02T04:07:00.821Z,3.54
2023-07-02T04:08:00.877Z,3.50
2023-07-02T04:09:00.911Z,3.47
2023-07-02T04:10:00.976Z,3.05
2023-07-02T04:11:01.015Z,3.43
2023-07-02T04:12:01.058Z,3.89
2023-07-02T04:13:01.127Z,3.37
2023-07-02T04:14:01.218Z,3.52
2023-07-02T04:15:01.237Z,3.51
2023-07-02T04:16:01.289Z,3.38
2023-07-02T04:17:01.317Z,3.27
2023-07-02T04:18:01.439Z,3.23
2023-07-02T04:19:01.406Z,3.12
2023-07-02T04:20:01.457Z,3.30
2023-07-02T04:21:01.502Z,2.95
2023-07-02T04:22:01.544Z,3.90
2023-07-02T04:23:01.591Z,3.61
2023-07-02T04:24:01.656Z,3.66
2023-07-02T04:25:09.817Z,3.21
2023-07-02T04:26:13.489Z,3.48
2023-07-02T04:27:49.448Z,3.36
2023-07-02T04:28:01.702Z,3.77
2023-07-02T04:29:01.704Z,3.29
2023-07-02T04:30:01.732Z,3.21
2023-07-02T04:31:01.724Z,2.84
2023-07-02T04:32:01.776Z,3.08
2023-07-02T04:33:01.755Z,3.49
2023-07-02T04:34:01.741Z,3.70
2023-07-02T04:35:01.736Z,3.53
2023-07-02T04:36:01.749Z,3.03
2023-07-02T04:37:01.757Z,3.65
2023-07-02T04:38:02.572Z,3.73
2023-07-02T04:39:01.760Z,3.09
2023-07-02T04:40:01.804Z,3.25
2023-07-02T04:41:01.762Z,3.39
2023-07-02T04:42:01.760Z,3.07
2023-07-02T04:43:01.808Z,3.54
2023-07-02T04:44:01.773Z,3.73
2023-07-02T04:45:01.788Z,3.34
2023-07-02T04:46:02.021Z,3.29
2023-07-02T04:47:01.817Z,3.57
2023-07-02T04:48:01.846Z,3.54
2023-07-02T04:49:01.846Z,3.05
2023-07-02T04:50:01.836Z,3.60
2023-07-02T04:51:01.830Z,3.46
2023-07-02T04:52:01.833Z,3.17
2023-07-02T04:53:01.848Z,3.15
2023-07-02T04:54:01.864Z,3.02
2023-07-02T04:55:01.946Z,3.43
2023-07-02T04:56:01.971Z,3.70
2023-07-02T04:57:02.026Z,3.79
2023-07-02T04:58:02.073Z,3.54
2023-07-02T04:59:02.130Z,3.40
2023-07-02T05:00:02.209Z,2.80
2023-07-02T05:01:02.297Z,3.78
2023-07-02T05:02:02.326Z,3.31
2023-07-02T05:03:02.429Z,3.40
2023-07-02T05:04:02.455Z,3.75
2023-07-02T05:05:02.523Z,3.16
2023-07-02T05:06:02.489Z,3.66
2023-07-02T05:07:02.562Z,3.57
2023-07-02T05:08:02.600Z,3.46
2023-07-02T05:09:02.651Z,3.53
2023-07-02T05:10:02.697Z,3.58
2023-07-02T05:11:02.746Z,3.47
2023-07-02T05:12:02.791Z,3.63
2023-07-02T05:13:02.855Z,3.29
2023-07-02T05:14:02.902Z,3.50
2023-07-02T05:15:02.932Z,3.57
2023-07-02T05:16:02.988Z,3.54
2023-07-02T05:17:03.203Z,3.22
2023-07-02T05:18:03.176Z,3.48
2023-07-02T05:19:03.142Z,3.46
2023-07-02T05:20:03.189Z,3.09
2023-07-02T05:21:03.251Z,3.39
2023-07-02T05:22:03.291Z,3.61
2023-07-02T05:23:03.332Z,3.64
2023-07-02T05:24:03.382Z,3.60
2023-07-02T05:25:03.437Z,2.87
2023-07-02T05:26:03.493Z,3.59
2023-07-02T05:27:03.583Z,3.09
2023-07-02T05:28:03.598Z,3.57
2023-07-02T05:29:03.644Z,3.47
2023-07-02T05:30:03.721Z,3.70
2023-07-02T05:31:03.777Z,3.79
2023-07-02T05:32:03.785Z,3.61
2023-07-02T05:33:03.953Z,3.43
2023-07-02T05:34:03.909Z,3.78
2023-07-02T05:35:03.933Z,3.64
2023-07-02T05:36:04.024Z,3.79
2023-07-02T05:37:04.027Z,4.01
2023-07-02T05:38:04.075Z,3.58
2023-07-02T05:39:04.128Z,3.79
2023-07-02T05:40:04.179Z,3.43
2023-07-02T05:41:04.221Z,3.26
2023-07-02T05:42:04.295Z,3.24
2023-07-02T05:43:04.326Z,4.05
2023-07-02T05:44:04.376Z,3.37
2023-07-02T05:45:04.411Z,3.88
2023-07-02T05:46:04.452Z,3.53
2023-07-02T05:47:04.619Z,3.71
2023-07-02T05:48:04.605Z,3.80
2023-07-02T05:49:04.606Z,3.34
2023-07-02T05:50:04.678Z,3.49
2023-07-02T05:51:04.704Z,3.19
2023-07-02T05:52:04.765Z,3.01
2023-07-02T05:53:04.805Z,3.81
2023-07-02T05:54:04.873Z,3.44
2023-07-02T05:55:04.919Z,3.82
2023-07-02T05:56:04.962Z,4.08
2023-07-02T05:57:05.010Z,3.80
2023-07-02T05:58:05.064Z,4.04
2023-07-02T05:59:05.109Z,3.74
2023-07-02T06:00:05.167Z,3.21
2023-07-02T06:01:05.200Z,3.67
2023-07-02T06:02:05.249Z,3.54
2023-07-02T06:03:05.435Z,3.41
2023-07-02T06:04:05.535Z,3.55
2023-07-02T06:05:05.562Z,3.83
2023-07-02T06:06:05.485Z,3.61
2023-07-02T06:07:05.504Z,3.80
2023-07-02T06:08:05.577Z,3.86
2023-07-02T06:09:05.639Z,3.86
2023-07-02T06:10:05.680Z,3.81
2023-07-02T06:11:05.738Z,3.49
2023-07-02T06:12:05.779Z,3.61
2023-07-02T06:13:05.838Z,4.11
2023-07-02T06:14:05.907Z,3.97
2023-07-02T06:15:05.961Z,3.94
2023-07-02T06:16:05.997Z,4.09
2023-07-02T06:17:06.189Z,3.93
2023-07-02T06:18:06.172Z,3.65
2023-07-02T06:19:06.171Z,4.03
2023-07-02T06:20:06.252Z,3.72
2023-07-02T06:21:06.277Z,3.77
2023-07-02T06:22:06.351Z,4.04
2023-07-02T06:23:06.374Z,4.53
2023-07-02T06:24:06.430Z,3.90
2023-07-02T06:25:06.477Z,3.64
2023-07-02T06:26:06.514Z,3.91
2023-07-02T06:27:06.574Z,4.04
2023-07-02T06:28:06.631Z,3.59
2023-07-02T06:29:06.687Z,3.87
2023-07-02T06:30:06.725Z,3.81
2023-07-02T06:31:06.794Z,3.75
2023-07-02T06:32:06.826Z,4.27
2023-07-02T06:33:06.875Z,3.99
2023-07-02T06:34:06.933Z,3.30
2023-07-02T06:35:06.979Z,4.57
2023-07-02T06:36:07.036Z,4.35
2023-07-02T06:37:07.083Z,3.78
2023-07-02T06:38:07.154Z,3.57
2023-07-02T06:39:07.177Z,3.88
2023-07-02T06:40:07.228Z,4.47
2023-07-02T06:41:07.289Z,4.31
2023-07-02T06:42:07.342Z,3.94
2023-07-02T06:43:07.394Z,4.42
2023-07-02T06:44:07.517Z,3.79
2023-07-02T06:45:07.520Z,4.56
2023-07-02T06:46:07.557Z,4.13
2023-07-02T06:47:07.594Z,3.62
2023-07-02T06:48:07.714Z,3.75
2023-07-02T06:49:07.700Z,4.33
2023-07-02T06:50:07.751Z,4.61
2023-07-02T06:51:07.796Z,3.95
2023-07-02T06:52:07.849Z,3.53
2023-07-02T06:53:07.914Z,3.83
2023-07-02T06:54:07.990Z,4.31
2023-07-02T06:55:08.029Z,3.89
2023-07-02T06:56:08.071Z,4.67
2023-07-02T06:57:08.123Z,4.44
2023-07-02T06:58:08.215Z,4.43
2023-07-02T06:59:08.221Z,4.27
2023-07-02T07:00:08.277Z,4.53
2023-07-02T07:01:08.331Z,4.34
2023-07-02T07:02:08.498Z,4.06
2023-07-02T07:03:08.426Z,4.64
2023-07-02T07:04:08.533Z,4.48
2023-07-02T07:05:08.612Z,4.35
2023-07-02T07:06:08.591Z,4.19
2023-07-02T07:07:08.637Z,3.80
2023-07-02T07:08:08.694Z,4.47
2023-07-02T07:09:08.736Z,4.71
2023-07-02T07:10:08.831Z,3.91
2023-07-02T07:11:08.855Z,4.35
2023-07-02T07:12:08.893Z,4.05
2023-07-02T07:13:11.653Z,4.17
2023-07-02T07:14:08.950Z,4.38
2023-07-02T07:15:08.957Z,4.53
2023-07-02T07:16:08.986Z,4.64
2023-07-02T07:17:08.985Z,3.88
2023-07-02T07:18:09.055Z,3.90
2023-07-02T07:19:08.967Z,4.56
2023-07-02T07:20:08.984Z,4.24
2023-07-02T07:21:08.987Z,4.31
2023-07-02T07:22:09.003Z,4.23
2023-07-02T07:23:08.992Z,4.23
2023-07-02T07:24:09.006Z,4.46
2023-07-02T07:25:09.023Z,4.46
2023-07-02T07:26:09.043Z,3.91
2023-07-02T07:27:09.018Z,4.11
2023-07-02T07:28:09.026Z,4.39
2023-07-02T07:29:09.029Z,4.22
2023-07-02T07:30:09.051Z,3.66
2023-07-02T07:31:09.078Z,4.49
2023-07-02T07:32:09.047Z,4.42
2023-07-02T07:33:09.049Z,3.89
2023-07-02T07:34:09.051Z,4.37
2023-07-02T07:35:09.058Z,4.74
2023-07-02T07:36:09.060Z,4.22
2023-07-02T07:37:09.066Z,4.56
2023-07-02T07:38:09.067Z,4.31
2023-07-02T07:39:09.079Z,4.48
2023-07-02T07:40:09.073Z,3.30
2023-07-02T07:41:09.080Z,4.27
2023-07-02T07:42:09.123Z,4.07
2023-07-02T07:43:09.103Z,4.72
2023-07-02T07:44:09.105Z,4.12
2023-07-02T07:45:09.113Z,4.85
2023-07-02T07:46:09.146Z,4.68
2023-07-02T07:47:09.125Z,4.47
2023-07-02T07:48:09.214Z,4.44
2023-07-02T07:49:09.186Z,4.22
2023-07-02T07:50:09.236Z,4.56
2023-07-02T07:51:09.278Z,3.94
2023-07-02T07:52:09.327Z,4.22
2023-07-02T07:53:09.369Z,4.29
2023-07-02T07:54:09.412Z,4.05
2023-07-02T07:55:09.484Z,4.04
2023-07-02T07:56:09.499Z,4.03
2023-07-02T07:57:09.545Z,4.14
2023-07-02T07:58:09.617Z,3.77
2023-07-02T07:59:09.628Z,3.81
2023-07-02T08:00:09.687Z,3.68
2023-07-02T08:01:09.748Z,4.18
2023-07-02T08:02:09.878Z,3.92
2023-07-02T08:03:09.883Z,4.36
2023-07-02T08:04:09.950Z,4.00
2023-07-02T08:05:09.919Z,4.46
2023-07-02T08:06:10.347Z,4.05
2023-07-02T08:07:10.003Z,4.16
2023-07-02T08:08:10.052Z,3.99
2023-07-02T08:09:10.095Z,3.92
2023-07-02T08:10:10.142Z,4.32
2023-07-02T08:11:10.182Z,4.43
2023-07-02T08:12:10.225Z,4.17
2023-07-02T08:13:10.271Z,3.83
2023-07-02T08:14:10.345Z,3.61
2023-07-02T08:15:10.353Z,3.91
2023-07-02T08:16:10.507Z,4.07
2023-07-02T08:17:10.437Z,4.12
2023-07-02T08:18:10.519Z,3.98
2023-07-02T08:19:10.524Z,3.84
2023-07-02T08:20:10.557Z,3.79
2023-07-02T08:21:10.607Z,3.87
2023-07-02T08:22:10.656Z,4.30
2023-07-02T08:23:10.702Z,4.04
2023-07-02T08:24:10.744Z,4.37
2023-07-02T08:25:10.769Z,3.92
2023-07-02T08:26:10.821Z,3.92
2023-07-02T08:27:10.855Z,4.28
2023-07-02T08:28:10.973Z,3.84
2023-07-02T08:29:10.982Z,3.71
2023-07-02T08:30:11.179Z,3.52
2023-07-02T08:31:11.064Z,3.92
2023-07-02T08:32:11.056Z,4.03
2023-07-02T08:33:11.105Z,4.10
2023-07-02T08:34:11.135Z,4.45
2023-07-02T08:35:11.166Z,3.73
2023-07-02T08:36:11.202Z,3.95
2023-07-02T08:37:11.239Z,3.84
2023-07-02T08:38:11.285Z,3.98
2023-07-02T08:39:11.322Z,4.08
2023-07-02T08:40:11.360Z,4.48
2023-07-02T08:41:11.404Z,4.32
2023-07-02T08:42:11.433Z,3.53
2023-07-02T08:43:11.473Z,3.94
2023-07-02T08:44:11.508Z,4.32
2023-07-02T08:45:11.549Z,3.79
2023-07-02T08:46:11.614Z,3.72
2023-07-02T08:47:11.734Z,3.90
2023-07-02T08:48:11.719Z,4.36
2023-07-02T08:49:11.702Z,3.99
2023-07-02T08:50:11.734Z,4.06
2023-07-02T08:51:11.769Z,3.82
2023-07-02T08:52:11.804Z,3.83
2023-07-02T08:53:11.839Z,4.79
2023-07-02T08:54:11.872Z,4.02
2023-07-02T08:55:11.909Z,4.06
2023-07-02T08:56:11.944Z,4.09
2023-07-02T08:57:11.976Z,4.36
2023-07-02T08:58:12.010Z,4.05
2023-07-02T08:59:12.046Z,4.18
2023-07-02T09:00:12.142Z,4.22
2023-07-02T09:01:12.128Z,4.54
2023-07-02T09:02:12.176Z,4.06
2023-07-02T09:03:12.173Z,4.24
2023-07-02T09:04:12.356Z,3.58
2023-07-02T09:05:12.318Z,3.71
2023-07-02T09:06:12.300Z,3.86
2023-07-02T09:07:12.308Z,4.22
2023-07-02T09:08:12.329Z,4.08
2023-07-02T09:09:12.355Z,3.99
2023-07-02T09:10:12.395Z,3.26
2023-07-02T09:11:12.440Z,4.28
2023-07-02T09:12:12.449Z,4.29
2023-07-02T09:13:12.475Z,3.89
2023-07-02T09:14:12.505Z,3.79
2023-07-02T09:15:12.538Z,4.04
2023-07-02T09:16:12.560Z,3.91
2023-07-02T09:17:12.705Z,4.05
2023-07-02T09:18:12.681Z,4.26
2023-07-02T09:19:12.663Z,4.67
2023-07-02T09:20:12.688Z,3.68
2023-07-02T09:21:12.712Z,4.05
2023-07-02T09:22:12.743Z,4.28
2023-07-02T09:23:12.782Z,3.98
2023-07-02T09:24:12.798Z,3.55
2023-07-02T09:25:12.831Z,4.09
2023-07-02T09:26:12.853Z,4.18
2023-07-02T09:27:12.879Z,3.60
2023-07-02T09:28:12.900Z,3.90
2023-07-02T09:29:12.924Z,4.44
2023-07-02T09:30:12.949Z,4.34
2023-07-02T09:31:13.047Z,4.26
2023-07-02T09:32:13.010Z,4.21
2023-07-02T09:33:13.096Z,3.94
2023-07-02T09:34:13.828Z,4.23
2023-07-02T09:35:13.100Z,4.17
2023-07-02T09:36:13.133Z,3.19
2023-07-02T09:37:13.152Z,3.62
2023-07-02T09:38:13.184Z,3.69
2023-07-02T09:39:13.205Z,3.76
2023-07-02T09:40:13.242Z,4.16
2023-07-02T09:41:13.264Z,3.76
2023-07-02T09:42:13.288Z,3.63
2023-07-02T09:43:13.314Z,3.98
2023-07-02T09:44:14.221Z,3.87
2023-07-02T09:45:13.369Z,3.64
2023-07-02T09:46:13.479Z,3.27
2023-07-02T09:47:13.432Z,3.97
2023-07-02T09:48:13.450Z,3.68
2023-07-02T09:49:13.474Z,3.98
2023-07-02T09:50:13.536Z,4.28
2023-07-02T09:51:13.530Z,3.77
2023-07-02T09:52:13.546Z,3.64
2023-07-02T09:53:13.572Z,4.07
2023-07-02T09:54:13.595Z,4.11
2023-07-02T09:55:13.640Z,3.78
2023-07-02T09:56:13.663Z,3.74
2023-07-02T09:57:13.698Z,3.48
2023-07-02T09:58:13.722Z,3.46
2023-07-02T09:59:13.741Z,3.57
2023-07-02T10:00:13.771Z,3.84
2023-07-02T10:01:13.843Z,3.78
2023-07-02T10:02:13.821Z,4.83
2023-07-02T10:03:13.837Z,4.17
2023-07-02T10:04:13.939Z,4.10
2023-07-02T10:05:13.967Z,3.52
2023-07-02T10:06:13.930Z,3.52
2023-07-02T10:07:13.997Z,3.82
2023-07-02T10:08:13.957Z,4.31
2023-07-02T10:09:13.984Z,4.15
2023-07-02T10:10:14.022Z,4.19
2023-07-02T10:11:14.067Z,4.20
2023-07-02T10:12:14.084Z,4.66
2023-07-02T10:13:14.110Z,3.92
2023-07-02T10:14:14.157Z,3.54
2023-07-02T10:15:14.183Z,3.87
2023-07-02T10:16:14.206Z,3.43
2023-07-02T10:17:14.270Z,4.15
2023-07-02T10:18:14.294Z,3.93
2023-07-02T10:19:14.306Z,3.83
2023-07-02T10:20:14.320Z,3.82
2023-07-02T10:21:14.347Z,3.74
2023-07-02T10:22:14.449Z,3.87
2023-07-02T10:23:14.392Z,4.43
2023-07-02T10:24:14.431Z,4.13
2023-07-02T10:25:14.457Z,3.88
2023-07-02T10:26:14.492Z,4.00
2023-07-02T10:27:14.507Z,3.47
2023-07-02T10:28:14.566Z,3.78
2023-07-02T10:29:14.566Z,3.97
2023-07-02T10:30:14.622Z,4.01
2023-07-02T10:31:14.645Z,3.93
2023-07-02T10:32:14.649Z,3.78
2023-07-02T10:33:14.701Z,4.86
2023-07-02T10:34:14.713Z,4.33
2023-07-02T10:35:14.719Z,4.19
2023-07-02T10:36:14.741Z,3.58
2023-07-02T10:37:14.758Z,3.85
2023-07-02T10:38:14.814Z,4.00
2023-07-02T10:39:14.801Z,3.45
2023-07-02T10:40:14.823Z,3.59
2023-07-02T10:41:14.850Z,4.04
2023-07-02T10:42:14.871Z,3.82
2023-07-02T10:43:14.894Z,3.89
2023-07-02T10:44:14.902Z,3.48
2023-07-02T10:45:14.920Z,4.23
2023-07-02T10:46:14.970Z,3.75
2023-07-02T10:47:14.969Z,3.90
2023-07-02T10:48:14.994Z,3.94
2023-07-02T10:49:15.003Z,3.54
2023-07-02T10:50:15.143Z,3.50
2023-07-02T10:51:15.063Z,3.81
2023-07-02T10:52:15.067Z,3.90
2023-07-02T10:53:15.086Z,4.07
2023-07-02T10:54:15.126Z,3.53
2023-07-02T10:55:15.124Z,4.03
2023-07-02T10:56:15.154Z,4.13
2023-07-02T10:57:15.174Z,3.71
2023-07-02T10:58:15.190Z,3.43
2023-07-02T10:59:15.207Z,3.48
2023-07-02T11:00:15.532Z,4.01
2023-07-02T11:01:15.266Z,3.63
2023-07-02T11:02:15.358Z,3.16
2023-07-02T11:03:15.408Z,3.40
2023-07-02T11:04:15.375Z,3.72
2023-07-02T11:05:15.340Z,3.44
2023-07-02T11:06:15.333Z,4.06
2023-07-02T11:07:15.395Z,3.87
2023-07-02T11:08:15.378Z,3.88
2023-07-02T11:09:15.392Z,3.81
2023-07-02T11:10:15.422Z,3.69
2023-07-02T11:11:15.401Z,3.92
2023-07-02T11:12:15.419Z,3.60
2023-07-02T11:13:15.434Z,3.57
2023-07-02T11:14:15.455Z,3.67
2023-07-02T11:15:15.464Z,3.60
2023-07-02T11:16:15.475Z,4.06
2023-07-02T11:17:15.524Z,3.90
2023-07-02T11:18:15.597Z,3.95
2023-07-02T11:19:15.557Z,3.30
2023-07-02T11:20:15.553Z,3.59
2023-07-02T11:21:15.561Z,3.94
2023-07-02T11:22:15.583Z,3.84
2023-07-02T11:23:15.598Z,3.60
2023-07-02T11:24:15.620Z,3.72
2023-07-02T11:25:15.637Z,3.76
2023-07-02T11:26:15.669Z,3.85
2023-07-02T11:27:15.663Z,3.66
2023-07-02T11:28:15.678Z,4.02
2023-07-02T11:29:15.712Z,3.61
2023-07-02T11:30:15.884Z,4.12
2023-07-02T11:31:15.884Z,3.86
2023-07-02T11:32:15.760Z,3.41
2023-07-02T11:33:15.775Z,3.93
2023-07-02T11:34:18.520Z,3.72
2023-07-02T11:35:15.784Z,3.96
2023-07-02T11:36:15.807Z,3.35
2023-07-02T11:37:15.785Z,3.53
2023-07-02T11:38:15.798Z,4.03
2023-07-02T11:39:15.778Z,4.06
2023-07-02T11:40:15.780Z,4.08
2023-07-02T11:41:15.784Z,3.75
2023-07-02T11:42:15.808Z,3.57
2023-07-02T11:43:15.789Z,3.55
2023-07-02T11:44:15.773Z,3.87
2023-07-02T11:45:15.784Z,3.42
2023-07-02T11:46:15.807Z,3.83
2023-07-02T11:47:15.824Z,4.28
2023-07-02T11:48:15.816Z,3.58
2023-07-02T11:49:15.777Z,4.28
2023-07-02T11:50:25.418Z,4.45
2023-07-02T11:51:15.763Z,3.79
2023-07-02T11:52:15.811Z,3.83
2023-07-02T11:53:15.773Z,3.76
2023-07-02T11:54:15.755Z,3.90
2023-07-02T11:55:15.757Z,3.93
2023-07-02T11:56:15.759Z,3.49
2023-07-02T11:57:15.760Z,3.66
2023-07-02T11:58:15.788Z,3.47
2023-07-02T11:59:15.753Z,4.58
2023-07-02T12:00:15.752Z,4.38
2023-07-02T12:01:15.775Z,3.77
2023-07-02T12:02:15.752Z,4.69
2023-07-02T12:03:15.807Z,3.89
2023-07-02T12:04:15.752Z,3.78
2023-07-02T12:05:15.748Z,4.35
2023-07-02T12:06:15.733Z,4.26
2023-07-02T12:07:15.730Z,4.01
2023-07-02T12:08:15.742Z,4.58
2023-07-02T12:09:15.731Z,4.09
2023-07-02T12:10:15.735Z,4.08
2023-07-02T12:11:15.747Z,4.27
2023-07-02T12:12:15.732Z,3.27
2023-07-02T12:13:15.723Z,4.50
2023-07-02T12:14:15.755Z,4.49
2023-07-02T12:15:15.718Z,4.11
2023-07-02T12:16:15.748Z,3.53
2023-07-02T12:17:15.730Z,3.92
2023-07-02T12:18:15.710Z,3.49
2023-07-02T12:19:15.703Z,3.81
2023-07-02T12:20:15.711Z,3.80
2023-07-02T12:21:15.715Z,3.50
2023-07-02T12:22:15.701Z,3.97
2023-07-02T12:23:15.704Z,4.00
2023-07-02T12:24:15.821Z,3.59
2023-07-02T12:25:15.699Z,3.76
2023-07-02T12:26:15.705Z,4.19
2023-07-02T12:27:15.774Z,4.55
2023-07-02T12:28:15.698Z,4.21
2023-07-02T12:29:15.701Z,4.73
2023-07-02T12:30:15.744Z,3.98
2023-07-02T12:31:15.756Z,4.50
2023-07-02T12:32:15.780Z,4.74
2023-07-02T12:33:16.547Z,4.42
2023-07-02T12:34:15.745Z,4.43
2023-07-02T12:35:15.763Z,5.10
2023-07-02T12:36:15.745Z,4.11
2023-07-02T12:37:15.738Z,4.65
2023-07-02T12:38:15.742Z,4.49
2023-07-02T12:39:18.908Z,4.08
2023-07-02T12:40:15.734Z,4.95
2023-07-02T12:41:15.732Z,4.10
2023-07-02T12:42:15.741Z,4.25
2023-07-02T12:43:15.735Z,4.56
2023-07-02T12:44:15.741Z,4.63
2023-07-02T12:45:17.572Z,4.76
2023-07-02T12:46:15.797Z,4.84
2023-07-02T12:47:15.729Z,4.62
2023-07-02T12:48:15.744Z,5.47
2023-07-02T12:49:15.749Z,5.05
2023-07-02T12:50:15.736Z,4.59
2023-07-02T12:51:17.414Z,4.69
2023-07-02T12:52:15.741Z,5.26
2023-07-02T12:53:14.722Z,4.28
2023-07-02T12:54:15.732Z,5.07
2023-07-02T12:55:15.736Z,4.78
2023-07-02T12:56:15.734Z,4.02
2023-07-02T12:57:16.926Z,3.98
2023-07-02T12:58:15.728Z,4.81
2023-07-02T12:59:15.719Z,4.81
2023-07-02T13:00:15.817Z,4.64
2023-07-02T13:01:15.722Z,5.11
2023-07-02T13:02:15.892Z,5.24
2023-07-02T13:03:16.518Z,5.09
2023-07-02T13:04:16.118Z,5.71
2023-07-02T13:05:15.772Z,5.36
2023-07-02T13:06:15.710Z,5.78
2023-07-02T13:07:15.700Z,5.22
2023-07-02T13:08:15.701Z,6.07
2023-07-02T13:09:15.699Z,5.25
2023-07-02T13:10:15.702Z,5.18
2023-07-02T13:11:15.698Z,5.71
2023-07-02T13:12:15.689Z,5.38
2023-07-02T13:13:22.869Z,5.31
2023-07-02T13:14:15.694Z,5.21
2023-07-02T13:15:15.683Z,5.81
2023-07-02T13:16:15.710Z,6.31
2023-07-02T13:17:15.685Z,5.86
2023-07-02T13:18:15.719Z,6.48
2023-07-02T13:19:15.689Z,5.64